sensor_id;sensor_type;location;lat;lon;timestamp;temperature;humidity
43679;DHT22;29279;50.858;4.392;2023-02-28T00:00:25;3.80;96.90
43679;DHT22;29279;50.858;4.392;2023-02-28T00:02:51;3.70;96.90
43679;DHT22;29279;50.858;4.392;2023-02-28T00:05:20;3.60;97.10
43679;DHT22;29279;50.858;4.392;2023-02-28T00:07:46;3.60;97.20
43679;DHT22;29279;50.858;4.392;2023-02-28T00:10:16;3.60;97.30
43679;DHT22;29279;50.858;4.392;2023-02-28T00:12:52;3.60;97.40
43679;DHT22;29279;50.858;4.392;2023-02-28T00:15:20;3.60;97.50
43679;DHT22;29279;50.858;4.392;2023-02-28T00:17:48;3.60;97.60
43679;DHT22;29279;50.858;4.392;2023-02-28T00:20:13;3.50;97.70
43679;DHT22;29279;50.858;4.392;2023-02-28T00:22:44;3.60;97.70
43679;DHT22;29279;50.858;4.392;2023-02-28T00:25:13;3.60;97.70
43679;DHT22;29279;50.858;4.392;2023-02-28T00:27:39;3.50;98.00
43679;DHT22;29279;50.858;4.392;2023-02-28T00:30:07;3.50;98.00
43679;DHT22;29279;50.858;4.392;2023-02-28T00:32:34;3.40;98.10
43679;DHT22;29279;50.858;4.392;2023-02-28T00:35:02;3.40;98.40
43679;DHT22;29279;50.858;4.392;2023-02-28T00:37:28;3.30;98.70
43679;DHT22;29279;50.858;4.392;2023-02-28T00:39:56;3.30;98.80
43679;DHT22;29279;50.858;4.392;2023-02-28T00:42:22;3.30;98.80
43679;DHT22;29279;50.858;4.392;2023-02-28T00:44:48;3.30;98.90
43679;DHT22;29279;50.858;4.392;2023-02-28T00:47:14;3.30;99.00
43679;DHT22;29279;50.858;4.392;2023-02-28T00:49:40;3.20;99.20
43679;DHT22;29279;50.858;4.392;2023-02-28T00:52:06;3.20;99.20
43679;DHT22;29279;50.858;4.392;2023-02-28T00:54:31;3.20;99.30
43679;DHT22;29279;50.858;4.392;2023-02-28T00:56:57;3.30;99.20
43679;DHT22;29279;50.858;4.392;2023-02-28T00:59:23;3.40;99.10
43679;DHT22;29279;50.858;4.392;2023-02-28T01:01:52;3.40;99.10
43679;DHT22;29279;50.858;4.392;2023-02-28T01:04:18;3.30;99.50
43679;DHT22;29279;50.858;4.392;2023-02-28T01:06:44;3.40;99.30
43679;DHT22;29279;50.858;4.392;2023-02-28T01:09:10;3.40;99.10
43679;DHT22;29279;50.858;4.392;2023-02-28T01:11:40;3.40;99.20
43679;DHT22;29279;50.858;4.392;2023-02-28T01:14:08;3.30;99.40
43679;DHT22;29279;50.858;4.392;2023-02-28T01:16:34;3.30;99.40
43679;DHT22;29279;50.858;4.392;2023-02-28T01:18:59;3.40;99.30
43679;DHT22;29279;50.858;4.392;2023-02-28T01:21:25;3.40;99.40
43679;DHT22;29279;50.858;4.392;2023-02-28T01:23:51;3.30;99.50
43679;DHT22;29279;50.858;4.392;2023-02-28T01:26:19;3.30;99.70
43679;DHT22;29279;50.858;4.392;2023-02-28T01:28:46;3.30;99.60
43679;DHT22;29279;50.858;4.392;2023-02-28T01:31:12;3.20;99.70
43679;DHT22;29279;50.858;4.392;2023-02-28T01:33:38;3.20;99.80
43679;DHT22;29279;50.858;4.392;2023-02-28T01:36:07;3.20;99.90
43679;DHT22;29279;50.858;4.392;2023-02-28T01:38:34;3.20;99.90
43679;DHT22;29279;50.858;4.392;2023-02-28T01:41:00;3.20;99.90
43679;DHT22;29279;50.858;4.392;2023-02-28T01:44:05;3.10;99.90
43679;DHT22;29279;50.858;4.392;2023-02-28T01:46:22;3.10;99.90
43679;DHT22;29279;50.858;4.392;2023-02-28T01:49:11;3.00;99.90
43679;DHT22;29279;50.858;4.392;2023-02-28T01:51:50;3.00;99.90
43679;DHT22;29279;50.858;4.392;2023-02-28T01:54:24;2.80;99.90
43679;DHT22;29279;50.858;4.392;2023-02-28T01:56:58;2.90;99.90
43679;DHT22;29279;50.858;4.392;2023-02-28T01:59:33;2.80;99.90
43679;DHT22;29279;50.858;4.392;2023-02-28T02:02:01;2.80;99.90
43679;DHT22;29279;50.858;4.392;2023-02-28T02:04:34;2.80;99.90
43679;DHT22;29279;50.858;4.392;2023-02-28T02:07:03;2.80;99.90
43679;DHT22;29279;50.858;4.392;2023-02-28T02:09:29;2.80;99.90
43679;DHT22;29279;50.858;4.392;2023-02-28T02:11:55;2.70;99.90
43679;DHT22;29279;50.858;4.392;2023-02-28T02:15:04;2.80;99.90
43679;DHT22;29279;50.858;4.392;2023-02-28T02:17:33;2.70;99.90
43679;DHT22;29279;50.858;4.392;2023-02-28T02:25:45;2.70;99.90
43679;DHT22;29279;50.858;4.392;2023-02-28T02:28:46;2.80;99.90
43679;DHT22;29279;50.858;4.392;2023-02-28T02:34:10;2.80;99.90
43679;DHT22;29279;50.858;4.392;2023-02-28T02:36:56;2.90;99.90
43679;DHT22;29279;50.858;4.392;2023-02-28T02:42:02;2.70;99.90
43679;DHT22;29279;50.858;4.392;2023-02-28T02:44:49;2.70;99.90
43679;DHT22;29279;50.858;4.392;2023-02-28T02:47:20;2.70;99.90
43679;DHT22;29279;50.858;4.392;2023-02-28T02:50:01;2.70;99.90
43679;DHT22;29279;50.858;4.392;2023-02-28T02:52:44;2.70;99.90
43679;DHT22;29279;50.858;4.392;2023-02-28T02:55:13;2.70;99.90
43679;DHT22;29279;50.858;4.392;2023-02-28T02:58:16;2.70;99.90
43679;DHT22;29279;50.858;4.392;2023-02-28T03:00:50;2.80;99.90
43679;DHT22;29279;50.858;4.392;2023-02-28T03:03:19;2.70;99.90
43679;DHT22;29279;50.858;4.392;2023-02-28T03:05:55;2.70;99.90
43679;DHT22;29279;50.858;4.392;2023-02-28T03:08:25;2.70;99.90
43679;DHT22;29279;50.858;4.392;2023-02-28T03:10:55;2.70;99.90
43679;DHT22;29279;50.858;4.392;2023-02-28T03:25:09;2.50;99.90
43679;DHT22;29279;50.858;4.392;2023-02-28T03:27:30;2.50;99.90
43679;DHT22;29279;50.858;4.392;2023-02-28T03:30:05;2.50;99.90
43679;DHT22;29279;50.858;4.392;2023-02-28T03:32:43;2.60;99.90
43679;DHT22;29279;50.858;4.392;2023-02-28T03:35:23;2.60;99.90
43679;DHT22;29279;50.858;4.392;2023-02-28T03:37:53;2.60;99.90
43679;DHT22;29279;50.858;4.392;2023-02-28T03:40:26;2.60;99.90
43679;DHT22;29279;50.858;4.392;2023-02-28T03:42:58;2.60;99.90
43679;DHT22;29279;50.858;4.392;2023-02-28T03:45:28;2.60;99.90
43679;DHT22;29279;50.858;4.392;2023-02-28T03:47:59;2.60;99.90
43679;DHT22;29279;50.858;4.392;2023-02-28T03:50:37;2.60;99.90
43679;DHT22;29279;50.858;4.392;2023-02-28T03:53:37;2.60;99.90
43679;DHT22;29279;50.858;4.392;2023-02-28T04:01:39;2.60;99.90
43679;DHT22;29279;50.858;4.392;2023-02-28T04:04:07;2.50;99.90
43679;DHT22;29279;50.858;4.392;2023-02-28T04:06:34;2.40;99.90
43679;DHT22;29279;50.858;4.392;2023-02-28T04:09:00;2.40;99.90
43679;DHT22;29279;50.858;4.392;2023-02-28T04:11:48;2.40;99.90
43679;DHT22;29279;50.858;4.392;2023-02-28T04:14:15;2.50;99.90
43679;DHT22;29279;50.858;4.392;2023-02-28T04:16:41;2.40;99.90
43679;DHT22;29279;50.858;4.392;2023-02-28T04:19:09;2.50;99.90
43679;DHT22;29279;50.858;4.392;2023-02-28T04:21:39;2.30;99.90
43679;DHT22;29279;50.858;4.392;2023-02-28T04:24:07;2.30;99.90
43679;DHT22;29279;50.858;4.392;2023-02-28T04:26:35;2.30;99.90
43679;DHT22;29279;50.858;4.392;2023-02-28T04:29:03;2.30;99.90
43679;DHT22;29279;50.858;4.392;2023-02-28T04:31:29;2.40;99.90
43679;DHT22;29279;50.858;4.392;2023-02-28T04:33:55;2.40;99.90
43679;DHT22;29279;50.858;4.392;2023-02-28T04:36:20;2.40;99.90
43679;DHT22;29279;50.858;4.392;2023-02-28T04:38:48;2.30;99.90
43679;DHT22;29279;50.858;4.392;2023-02-28T04:41:14;2.30;99.90
43679;DHT22;29279;50.858;4.392;2023-02-28T04:43:40;2.30;99.90
43679;DHT22;29279;50.858;4.392;2023-02-28T04:46:06;2.40;99.90
43679;DHT22;29279;50.858;4.392;2023-02-28T04:48:36;2.40;99.90
43679;DHT22;29279;50.858;4.392;2023-02-28T04:51:04;2.40;99.90
43679;DHT22;29279;50.858;4.392;2023-02-28T04:53:31;2.40;99.90
43679;DHT22;29279;50.858;4.392;2023-02-28T04:55:57;2.30;99.90
43679;DHT22;29279;50.858;4.392;2023-02-28T04:58:23;2.30;99.90
43679;DHT22;29279;50.858;4.392;2023-02-28T05:00:52;2.40;99.90
43679;DHT22;29279;50.858;4.392;2023-02-28T05:03:19;2.30;99.90
43679;DHT22;29279;50.858;4.392;2023-02-28T05:05:46;2.20;99.90
43679;DHT22;29279;50.858;4.392;2023-02-28T05:08:12;2.30;99.90
43679;DHT22;29279;50.858;4.392;2023-02-28T05:10:38;2.30;99.90
43679;DHT22;29279;50.858;4.392;2023-02-28T05:13:03;2.30;99.90
43679;DHT22;29279;50.858;4.392;2023-02-28T05:15:29;2.40;99.90
43679;DHT22;29279;50.858;4.392;2023-02-28T05:17:55;2.40;99.90
43679;DHT22;29279;50.858;4.392;2023-02-28T05:20:22;2.40;99.90
43679;DHT22;29279;50.858;4.392;2023-02-28T05:22:47;2.50;99.90
43679;DHT22;29279;50.858;4.392;2023-02-28T05:25:19;2.60;99.90
43679;DHT22;29279;50.858;4.392;2023-02-28T05:27:45;2.50;99.90
43679;DHT22;29279;50.858;4.392;2023-02-28T05:30:11;2.60;99.90
43679;DHT22;29279;50.858;4.392;2023-02-28T05:32:38;2.60;99.90
43679;DHT22;29279;50.858;4.392;2023-02-28T05:35:05;2.70;99.90
43679;DHT22;29279;50.858;4.392;2023-02-28T05:37:30;2.80;99.90
43679;DHT22;29279;50.858;4.392;2023-02-28T05:39:56;2.80;99.90
43679;DHT22;29279;50.858;4.392;2023-02-28T05:42:22;2.90;99.90
43679;DHT22;29279;50.858;4.392;2023-02-28T05:44:47;2.90;99.90
43679;DHT22;29279;50.858;4.392;2023-02-28T05:47:13;3.00;99.90
43679;DHT22;29279;50.858;4.392;2023-02-28T05:49:41;3.00;99.90
43679;DHT22;29279;50.858;4.392;2023-02-28T05:52:07;3.00;99.90
43679;DHT22;29279;50.858;4.392;2023-02-28T05:54:32;3.00;99.90
43679;DHT22;29279;50.858;4.392;2023-02-28T05:56:58;3.10;99.90
43679;DHT22;29279;50.858;4.392;2023-02-28T05:59:24;3.20;99.90
43679;DHT22;29279;50.858;4.392;2023-02-28T06:01:50;3.20;99.90
43679;DHT22;29279;50.858;4.392;2023-02-28T06:04:18;3.30;99.90
43679;DHT22;29279;50.858;4.392;2023-02-28T06:06:45;3.30;99.90
43679;DHT22;29279;50.858;4.392;2023-02-28T06:09:11;3.40;99.90
43679;DHT22;29279;50.858;4.392;2023-02-28T06:11:37;3.30;99.90
43679;DHT22;29279;50.858;4.392;2023-02-28T06:14:03;3.40;99.90
43679;DHT22;29279;50.858;4.392;2023-02-28T06:16:31;3.40;99.90
43679;DHT22;29279;50.858;4.392;2023-02-28T06:18:59;3.40;99.90
43679;DHT22;29279;50.858;4.392;2023-02-28T06:21:25;3.30;99.90
43679;DHT22;29279;50.858;4.392;2023-02-28T06:23:52;3.30;99.90
43679;DHT22;29279;50.858;4.392;2023-02-28T06:26:18;3.20;99.90
43679;DHT22;29279;50.858;4.392;2023-02-28T06:28:44;3.20;99.90
43679;DHT22;29279;50.858;4.392;2023-02-28T06:31:12;3.20;99.90
43679;DHT22;29279;50.858;4.392;2023-02-28T06:33:39;3.20;99.90
43679;DHT22;29279;50.858;4.392;2023-02-28T06:36:06;3.30;99.90
43679;DHT22;29279;50.858;4.392;2023-02-28T06:38:32;3.30;99.90
43679;DHT22;29279;50.858;4.392;2023-02-28T06:41:00;3.40;99.90
43679;DHT22;29279;50.858;4.392;2023-02-28T06:43:29;3.30;99.90
43679;DHT22;29279;50.858;4.392;2023-02-28T06:45:58;3.40;99.90
43679;DHT22;29279;50.858;4.392;2023-02-28T06:48:23;3.40;99.90
43679;DHT22;29279;50.858;4.392;2023-02-28T06:50:50;3.60;99.90
43679;DHT22;29279;50.858;4.392;2023-02-28T06:53:15;3.70;99.90
43679;DHT22;29279;50.858;4.392;2023-02-28T06:55:41;3.70;99.90
43679;DHT22;29279;50.858;4.392;2023-02-28T06:58:07;3.70;99.90
43679;DHT22;29279;50.858;4.392;2023-02-28T07:00:45;3.80;99.90
43679;DHT22;29279;50.858;4.392;2023-02-28T07:03:12;3.80;99.90
43679;DHT22;29279;50.858;4.392;2023-02-28T07:05:39;3.80;99.90
43679;DHT22;29279;50.858;4.392;2023-02-28T07:08:05;3.80;99.90
43679;DHT22;29279;50.858;4.392;2023-02-28T07:10:32;3.70;99.90
43679;DHT22;29279;50.858;4.392;2023-02-28T07:12:59;3.80;99.90
43679;DHT22;29279;50.858;4.392;2023-02-28T07:15:25;3.80;99.90
43679;DHT22;29279;50.858;4.392;2023-02-28T07:17:50;3.90;99.90
43679;DHT22;29279;50.858;4.392;2023-02-28T07:20:16;3.90;99.90
43679;DHT22;29279;50.858;4.392;2023-02-28T07:22:42;3.90;99.90
43679;DHT22;29279;50.858;4.392;2023-02-28T07:25:09;4.00;99.90
43679;DHT22;29279;50.858;4.392;2023-02-28T07:27:35;4.00;99.90
43679;DHT22;29279;50.858;4.392;2023-02-28T07:30:01;3.90;99.90
43679;DHT22;29279;50.858;4.392;2023-02-28T07:32:29;3.90;99.90
43679;DHT22;29279;50.858;4.392;2023-02-28T07:34:55;4.10;99.90
43679;DHT22;29279;50.858;4.392;2023-02-28T07:37:21;4.20;99.90
43679;DHT22;29279;50.858;4.392;2023-02-28T07:39:47;4.30;99.90
43679;DHT22;29279;50.858;4.392;2023-02-28T07:42:12;4.30;99.90
43679;DHT22;29279;50.858;4.392;2023-02-28T07:44:41;4.40;99.90
43679;DHT22;29279;50.858;4.392;2023-02-28T07:47:10;4.40;99.90
43679;DHT22;29279;50.858;4.392;2023-02-28T07:49:37;4.50;99.90
43679;DHT22;29279;50.858;4.392;2023-02-28T07:52:04;4.50;99.90
43679;DHT22;29279;50.858;4.392;2023-02-28T07:54:36;4.40;99.90
43679;DHT22;29279;50.858;4.392;2023-02-28T07:57:08;4.40;99.90
43679;DHT22;29279;50.858;4.392;2023-02-28T07:59:34;4.50;99.90
43679;DHT22;29279;50.858;4.392;2023-02-28T08:01:59;4.70;99.90
43679;DHT22;29279;50.858;4.392;2023-02-28T08:04:25;4.80;99.90
43679;DHT22;29279;50.858;4.392;2023-02-28T08:06:51;4.90;99.50
43679;DHT22;29279;50.858;4.392;2023-02-28T08:09:19;4.90;99.10
43679;DHT22;29279;50.858;4.392;2023-02-28T08:11:45;5.00;98.70
43679;DHT22;29279;50.858;4.392;2023-02-28T08:14:10;5.10;98.50
43679;DHT22;29279;50.858;4.392;2023-02-28T08:16:36;5.20;98.30
43679;DHT22;29279;50.858;4.392;2023-02-28T08:19:02;5.50;97.50
43679;DHT22;29279;50.858;4.392;2023-02-28T08:21:28;5.70;97.50
43679;DHT22;29279;50.858;4.392;2023-02-28T08:23:53;5.90;97.10
43679;DHT22;29279;50.858;4.392;2023-02-28T08:26:19;6.20;96.10
43679;DHT22;29279;50.858;4.392;2023-02-28T08:28:45;6.50;95.50
43679;DHT22;29279;50.858;4.392;2023-02-28T08:31:13;7.00;94.50
43679;DHT22;29279;50.858;4.392;2023-02-28T08:33:40;7.60;93.50
43679;DHT22;29279;50.858;4.392;2023-02-28T08:36:07;8.50;91.90
43679;DHT22;29279;50.858;4.392;2023-02-28T08:38:33;9.30;90.50
43679;DHT22;29279;50.858;4.392;2023-02-28T08:41:01;10.00;86.70
43679;DHT22;29279;50.858;4.392;2023-02-28T08:43:28;10.50;84.50
43679;DHT22;29279;50.858;4.392;2023-02-28T08:45:57;11.40;82.30
43679;DHT22;29279;50.858;4.392;2023-02-28T08:48:24;12.10;81.00
43679;DHT22;29279;50.858;4.392;2023-02-28T08:51:05;12.70;77.20
43679;DHT22;29279;50.858;4.392;2023-02-28T08:53:32;12.90;73.30
43679;DHT22;29279;50.858;4.392;2023-02-28T08:56:02;13.10;72.60
43679;DHT22;29279;50.858;4.392;2023-02-28T08:58:29;13.40;73.30
43679;DHT22;29279;50.858;4.392;2023-02-28T09:00:55;13.80;69.40
43679;DHT22;29279;50.858;4.392;2023-02-28T09:03:21;13.90;71.50
43679;DHT22;29279;50.858;4.392;2023-02-28T09:05:55;14.50;70.50
43679;DHT22;29279;50.858;4.392;2023-02-28T09:08:22;14.80;68.70
43679;DHT22;29279;50.858;4.392;2023-02-28T09:10:48;15.40;66.60
43679;DHT22;29279;50.858;4.392;2023-02-28T09:13:14;15.50;66.20
43679;DHT22;29279;50.858;4.392;2023-02-28T09:15:39;15.40;65.50
43679;DHT22;29279;50.858;4.392;2023-02-28T09:18:05;16.00;64.40
43679;DHT22;29279;50.858;4.392;2023-02-28T09:20:31;16.20;64.00
43679;DHT22;29279;50.858;4.392;2023-02-28T09:22:57;16.60;62.40
43679;DHT22;29279;50.858;4.392;2023-02-28T09:25:22;16.90;61.70
43679;DHT22;29279;50.858;4.392;2023-02-28T09:27:48;16.90;59.20
43679;DHT22;29279;50.858;4.392;2023-02-28T09:30:14;16.80;61.00
43679;DHT22;29279;50.858;4.392;2023-02-28T09:32:40;17.10;60.40
43679;DHT22;29279;50.858;4.392;2023-02-28T09:35:06;17.60;58.80
43679;DHT22;29279;50.858;4.392;2023-02-28T09:37:32;17.90;57.70
43679;DHT22;29279;50.858;4.392;2023-02-28T09:39:57;18.00;56.60
43679;DHT22;29279;50.858;4.392;2023-02-28T09:42:32;17.90;56.90
43679;DHT22;29279;50.858;4.392;2023-02-28T09:45:00;18.30;57.40
43679;DHT22;29279;50.858;4.392;2023-02-28T09:47:34;18.90;54.60
43679;DHT22;29279;50.858;4.392;2023-02-28T09:52:53;19.80;53.30
43679;DHT22;29279;50.858;4.392;2023-02-28T09:55:39;19.30;52.10
43679;DHT22;29279;50.858;4.392;2023-02-28T10:01:05;19.70;50.40
43679;DHT22;29279;50.858;4.392;2023-02-28T10:06:17;19.50;50.10
43679;DHT22;29279;50.858;4.392;2023-02-28T10:09:03;19.30;50.30
43679;DHT22;29279;50.858;4.392;2023-02-28T10:11:32;19.50;50.00
43679;DHT22;29279;50.858;4.392;2023-02-28T10:14:00;19.20;50.80
43679;DHT22;29279;50.858;4.392;2023-02-28T10:16:38;19.80;49.50
43679;DHT22;29279;50.858;4.392;2023-02-28T10:19:16;19.90;48.50
43679;DHT22;29279;50.858;4.392;2023-02-28T10:22:31;19.30;49.40
43679;DHT22;29279;50.858;4.392;2023-02-28T10:24:44;19.50;49.80
43679;DHT22;29279;50.858;4.392;2023-02-28T10:27:19;19.90;49.40
43679;DHT22;29279;50.858;4.392;2023-02-28T10:29:57;19.90;48.00
43679;DHT22;29279;50.858;4.392;2023-02-28T10:32:26;19.90;47.90
43679;DHT22;29279;50.858;4.392;2023-02-28T10:37:27;19.90;47.30
43679;DHT22;29279;50.858;4.392;2023-02-28T10:39:53;20.30;46.80
43679;DHT22;29279;50.858;4.392;2023-02-28T10:42:27;21.00;46.50
43679;DHT22;29279;50.858;4.392;2023-02-28T10:45:09;21.50;45.20
43679;DHT22;29279;50.858;4.392;2023-02-28T10:47:40;21.10;45.00
43679;DHT22;29279;50.858;4.392;2023-02-28T10:52:53;21.10;44.10
43679;DHT22;29279;50.858;4.392;2023-02-28T10:55:24;21.20;43.60
43679;DHT22;29279;50.858;4.392;2023-02-28T10:57:51;21.00;43.90
43679;DHT22;29279;50.858;4.392;2023-02-28T11:00:25;21.10;43.50
43679;DHT22;29279;50.858;4.392;2023-02-28T11:02:56;21.50;44.30
43679;DHT22;29279;50.858;4.392;2023-02-28T11:07:52;21.50;43.90
43679;DHT22;29279;50.858;4.392;2023-02-28T11:10:20;21.00;45.20
43679;DHT22;29279;50.858;4.392;2023-02-28T11:12:47;21.60;42.80
43679;DHT22;29279;50.858;4.392;2023-02-28T11:15:25;21.30;43.90
43679;DHT22;29279;50.858;4.392;2023-02-28T11:20:29;20.70;46.10
43679;DHT22;29279;50.858;4.392;2023-02-28T11:22:57;20.80;47.20
43679;DHT22;29279;50.858;4.392;2023-02-28T11:25:27;20.00;46.50
43679;DHT22;29279;50.858;4.392;2023-02-28T11:27:59;18.70;45.10
43679;DHT22;29279;50.858;4.392;2023-02-28T11:30:39;17.80;46.50
43679;DHT22;29279;50.858;4.392;2023-02-28T11:36:31;19.70;46.60
43679;DHT22;29279;50.858;4.392;2023-02-28T11:39:01;20.40;45.20
43679;DHT22;29279;50.858;4.392;2023-02-28T11:50:48;20.70;45.50
43679;DHT22;29279;50.858;4.392;2023-02-28T11:53:39;20.80;44.60
43679;DHT22;29279;50.858;4.392;2023-02-28T11:56:20;21.20;44.70
43679;DHT22;29279;50.858;4.392;2023-02-28T11:59:01;21.30;44.10
43679;DHT22;29279;50.858;4.392;2023-02-28T12:04:33;21.80;44.60
43679;DHT22;29279;50.858;4.392;2023-02-28T12:18:10;22.20;42.10
43679;DHT22;29279;50.858;4.392;2023-02-28T12:21:01;22.30;42.20
43679;DHT22;29279;50.858;4.392;2023-02-28T12:23:50;22.90;42.00
43679;DHT22;29279;50.858;4.392;2023-02-28T12:31:44;22.60;42.10
43679;DHT22;29279;50.858;4.392;2023-02-28T12:34:29;22.60;41.70
43679;DHT22;29279;50.858;4.392;2023-02-28T12:37:03;22.30;41.60
43679;DHT22;29279;50.858;4.392;2023-02-28T12:39:41;22.80;41.00
43679;DHT22;29279;50.858;4.392;2023-02-28T12:42:30;22.10;42.10
43679;DHT22;29279;50.858;4.392;2023-02-28T12:45:01;21.90;41.70
43679;DHT22;29279;50.858;4.392;2023-02-28T12:47:27;20.70;42.90
43679;DHT22;29279;50.858;4.392;2023-02-28T12:50:06;21.20;44.30
43679;DHT22;29279;50.858;4.392;2023-02-28T12:52:51;21.80;42.40
43679;DHT22;29279;50.858;4.392;2023-02-28T13:09:16;22.60;40.60
43679;DHT22;29279;50.858;4.392;2023-02-28T13:11:52;22.00;41.80
43679;DHT22;29279;50.858;4.392;2023-02-28T13:19:31;21.20;41.80
43679;DHT22;29279;50.858;4.392;2023-02-28T13:21:58;21.10;41.10
43679;DHT22;29279;50.858;4.392;2023-02-28T13:24:44;21.00;42.80
43679;DHT22;29279;50.858;4.392;2023-02-28T13:27:20;21.20;43.00
43679;DHT22;29279;50.858;4.392;2023-02-28T13:29:53;21.80;42.70
43679;DHT22;29279;50.858;4.392;2023-02-28T13:42:35;20.90;40.70
43679;DHT22;29279;50.858;4.392;2023-02-28T13:56:03;19.40;42.20
43679;DHT22;29279;50.858;4.392;2023-02-28T13:58:36;19.80;41.50
43679;DHT22;29279;50.858;4.392;2023-02-28T14:01:32;19.80;41.10
43679;DHT22;29279;50.858;4.392;2023-02-28T14:07:06;19.90;41.30
43679;DHT22;29279;50.858;4.392;2023-02-28T14:09:40;20.00;44.50
43679;DHT22;29279;50.858;4.392;2023-02-28T14:15:42;20.10;43.10
43679;DHT22;29279;50.858;4.392;2023-02-28T14:18:37;20.40;42.30
43679;DHT22;29279;50.858;4.392;2023-02-28T14:21:19;20.50;42.80
43679;DHT22;29279;50.858;4.392;2023-02-28T14:32:32;20.10;41.60
43679;DHT22;29279;50.858;4.392;2023-02-28T14:37:41;19.80;41.40
43679;DHT22;29279;50.858;4.392;2023-02-28T14:42:55;19.10;43.00
43679;DHT22;29279;50.858;4.392;2023-02-28T14:45:22;19.00;42.20
43679;DHT22;29279;50.858;4.392;2023-02-28T14:47:51;18.80;42.40
43679;DHT22;29279;50.858;4.392;2023-02-28T14:50:20;18.50;44.00
43679;DHT22;29279;50.858;4.392;2023-02-28T14:52:46;18.60;44.00
43679;DHT22;29279;50.858;4.392;2023-02-28T14:55:18;18.90;43.30
43679;DHT22;29279;50.858;4.392;2023-02-28T14:57:58;18.50;43.30
43679;DHT22;29279;50.858;4.392;2023-02-28T15:00:29;18.30;43.30
43679;DHT22;29279;50.858;4.392;2023-02-28T15:03:00;17.60;44.40
43679;DHT22;29279;50.858;4.392;2023-02-28T15:08:04;17.10;43.70
43679;DHT22;29279;50.858;4.392;2023-02-28T15:10:30;16.50;44.50
43679;DHT22;29279;50.858;4.392;2023-02-28T15:16:00;15.90;45.40
43679;DHT22;29279;50.858;4.392;2023-02-28T15:18:33;15.80;45.70
43679;DHT22;29279;50.858;4.392;2023-02-28T15:21:15;15.90;46.40
43679;DHT22;29279;50.858;4.392;2023-02-28T15:23:45;15.60;46.60
43679;DHT22;29279;50.858;4.392;2023-02-28T15:26:18;15.70;46.20
43679;DHT22;29279;50.858;4.392;2023-02-28T15:28:45;15.20;46.10
43679;DHT22;29279;50.858;4.392;2023-02-28T15:31:43;14.80;46.90
43679;DHT22;29279;50.858;4.392;2023-02-28T15:34:19;14.30;48.90
43679;DHT22;29279;50.858;4.392;2023-02-28T15:36:46;14.10;47.80
43679;DHT22;29279;50.858;4.392;2023-02-28T15:39:26;13.60;48.30
43679;DHT22;29279;50.858;4.392;2023-02-28T15:42:16;13.30;49.00
43679;DHT22;29279;50.858;4.392;2023-02-28T15:44:43;13.10;48.40
43679;DHT22;29279;50.858;4.392;2023-02-28T15:47:25;12.60;49.40
43679;DHT22;29279;50.858;4.392;2023-02-28T15:52:39;11.80;53.30
43679;DHT22;29279;50.858;4.392;2023-02-28T15:55:12;11.60;50.80
43679;DHT22;29279;50.858;4.392;2023-02-28T15:57:43;11.20;53.10
43679;DHT22;29279;50.858;4.392;2023-02-28T16:00:14;11.30;52.40
43679;DHT22;29279;50.858;4.392;2023-02-28T16:02:40;11.10;53.10
43679;DHT22;29279;50.858;4.392;2023-02-28T16:07:32;11.10;52.70
43679;DHT22;29279;50.858;4.392;2023-02-28T16:09:59;11.10;53.80
43679;DHT22;29279;50.858;4.392;2023-02-28T16:12:27;11.10;52.10
43679;DHT22;29279;50.858;4.392;2023-02-28T16:14:54;11.00;52.20
43679;DHT22;29279;50.858;4.392;2023-02-28T16:17:24;11.00;52.80
43679;DHT22;29279;50.858;4.392;2023-02-28T16:19:50;11.00;52.40
43679;DHT22;29279;50.858;4.392;2023-02-28T16:22:16;11.10;52.30
43679;DHT22;29279;50.858;4.392;2023-02-28T16:24:42;11.00;52.50
43679;DHT22;29279;50.858;4.392;2023-02-28T16:27:25;11.00;52.80
43679;DHT22;29279;50.858;4.392;2023-02-28T16:29:53;10.90;53.10
43679;DHT22;29279;50.858;4.392;2023-02-28T16:32:19;10.80;53.80
43679;DHT22;29279;50.858;4.392;2023-02-28T16:34:44;10.60;53.20
43679;DHT22;29279;50.858;4.392;2023-02-28T16:37:15;10.30;53.70
43679;DHT22;29279;50.858;4.392;2023-02-28T16:39:42;10.30;53.50
43679;DHT22;29279;50.858;4.392;2023-02-28T16:42:18;10.10;53.80
43679;DHT22;29279;50.858;4.392;2023-02-28T16:44:46;10.00;55.20
43679;DHT22;29279;50.858;4.392;2023-02-28T16:47:11;10.00;54.70
43679;DHT22;29279;50.858;4.392;2023-02-28T16:49:37;9.90;54.50
43679;DHT22;29279;50.858;4.392;2023-02-28T16:52:03;9.90;55.60
43679;DHT22;29279;50.858;4.392;2023-02-28T16:54:29;9.90;54.30
43679;DHT22;29279;50.858;4.392;2023-02-28T16:56:55;9.80;54.90
43679;DHT22;29279;50.858;4.392;2023-02-28T16:59:26;9.70;55.40
43679;DHT22;29279;50.858;4.392;2023-02-28T17:01:53;9.70;54.90
43679;DHT22;29279;50.858;4.392;2023-02-28T17:04:19;9.60;55.10
43679;DHT22;29279;50.858;4.392;2023-02-28T17:06:45;9.20;55.80
43679;DHT22;29279;50.858;4.392;2023-02-28T17:09:17;9.00;56.50
43679;DHT22;29279;50.858;4.392;2023-02-28T17:11:43;8.80;56.70
43679;DHT22;29279;50.858;4.392;2023-02-28T17:14:08;8.80;56.90
43679;DHT22;29279;50.858;4.392;2023-02-28T17:16:36;8.80;57.20
43679;DHT22;29279;50.858;4.392;2023-02-28T17:19:05;8.80;56.80
43679;DHT22;29279;50.858;4.392;2023-02-28T17:21:31;8.70;57.20
43679;DHT22;29279;50.858;4.392;2023-02-28T17:23:58;8.60;57.20
43679;DHT22;29279;50.858;4.392;2023-02-28T17:26:24;8.50;57.70
43679;DHT22;29279;50.858;4.392;2023-02-28T17:28:51;8.30;58.40
43679;DHT22;29279;50.858;4.392;2023-02-28T17:31:18;8.20;58.20
43679;DHT22;29279;50.858;4.392;2023-02-28T17:33:44;8.20;58.50
43679;DHT22;29279;50.858;4.392;2023-02-28T17:36:27;8.20;58.60
43679;DHT22;29279;50.858;4.392;2023-02-28T17:38:54;8.20;58.20
43679;DHT22;29279;50.858;4.392;2023-02-28T17:41:20;8.10;58.40
43679;DHT22;29279;50.858;4.392;2023-02-28T17:43:46;8.10;58.60
43679;DHT22;29279;50.858;4.392;2023-02-28T17:46:23;8.00;58.60
43679;DHT22;29279;50.858;4.392;2023-02-28T17:48:51;7.90;59.30
43679;DHT22;29279;50.858;4.392;2023-02-28T17:51:18;7.90;59.60
43679;DHT22;29279;50.858;4.392;2023-02-28T17:53:44;8.00;58.90
43679;DHT22;29279;50.858;4.392;2023-02-28T17:56:24;7.90;59.10
43679;DHT22;29279;50.858;4.392;2023-02-28T17:58:52;7.70;59.40
43679;DHT22;29279;50.858;4.392;2023-02-28T18:01:19;7.60;59.60
43679;DHT22;29279;50.858;4.392;2023-02-28T18:03:46;7.60;59.90
43679;DHT22;29279;50.858;4.392;2023-02-28T18:09:02;7.40;60.20
43679;DHT22;29279;50.858;4.392;2023-02-28T18:11:27;7.30;60.60
43679;DHT22;29279;50.858;4.392;2023-02-28T18:14:08;7.30;60.70
43679;DHT22;29279;50.858;4.392;2023-02-28T18:16:33;7.10;60.90
43679;DHT22;29279;50.858;4.392;2023-02-28T18:18:59;7.10;61.30
43679;DHT22;29279;50.858;4.392;2023-02-28T18:21:27;7.10;61.50
43679;DHT22;29279;50.858;4.392;2023-02-28T18:23:53;7.10;61.90
43679;DHT22;29279;50.858;4.392;2023-02-28T18:26:19;7.10;61.50
43679;DHT22;29279;50.858;4.392;2023-02-28T18:28:46;7.00;61.60
43679;DHT22;29279;50.858;4.392;2023-02-28T18:31:15;6.90;61.80